sensor_id;sensor_type;location;lat;lon;timestamp;pressure;altitude;pressure_sealevel;temperature;humidity
50518;BME280;37075;44.084;2.962;2023-08-01T00:00:04;97597.72;;;17.30;51.86
50518;BME280;37075;44.084;2.962;2023-08-01T00:02:57;97600.06;;;17.24;52.86
50518;BME280;37075;44.084;2.962;2023-08-01T00:05:43;97601.19;;;17.20;51.86
50518;BME280;37075;44.084;2.962;2023-08-01T00:08:30;97602.31;;;17.15;52.41
50518;BME280;37075;44.084;2.962;2023-08-01T00:11:35;97600.28;;;17.09;52.49
50518;BME280;37075;44.084;2.962;2023-08-01T00:14:21;97597.88;;;17.04;53.14
50518;BME280;37075;44.084;2.962;2023-08-01T00:17:10;97588.00;;;16.99;53.65
50518;BME280;37075;44.084;2.962;2023-08-01T00:19:55;97576.94;;;16.95;53.20
50518;BME280;37075;44.084;2.962;2023-08-01T00:22:42;97575.31;;;16.91;53.02
50518;BME280;37075;44.084;2.962;2023-08-01T00:25:29;97566.59;;;16.85;54.00
50518;BME280;37075;44.084;2.962;2023-08-01T00:28:14;97567.72;;;16.81;53.77
50518;BME280;37075;44.084;2.962;2023-08-01T00:31:04;97559.41;;;16.74;54.83
50518;BME280;37075;44.084;2.962;2023-08-01T00:33:52;97557.78;;;16.69;53.54
50518;BME280;37075;44.084;2.962;2023-08-01T00:36:38;97570.25;;;16.63;54.39
50518;BME280;37075;44.084;2.962;2023-08-01T00:39:24;97551.31;;;16.58;54.47
50518;BME280;37075;44.084;2.962;2023-08-01T00:42:10;97558.34;;;16.52;55.58
50518;BME280;37075;44.084;2.962;2023-08-01T00:44:56;97555.91;;;16.43;56.59
50518;BME280;37075;44.084;2.962;2023-08-01T00:47:42;97554.31;;;16.42;54.73
50518;BME280;37075;44.084;2.962;2023-08-01T00:50:29;97551.88;;;16.37;54.73
50518;BME280;37075;44.084;2.962;2023-08-01T00:53:15;97543.97;;;16.32;55.59
50518;BME280;37075;44.084;2.962;2023-08-01T00:56:19;97540.75;;;16.26;55.54
50518;BME280;37075;44.084;2.962;2023-08-01T00:59:05;97539.91;;;16.22;55.16
50518;BME280;37075;44.084;2.962;2023-08-01T01:02:09;97536.28;;;16.15;56.77
50518;BME280;37075;44.084;2.962;2023-08-01T01:04:56;97535.84;;;16.13;55.50
50518;BME280;37075;44.084;2.962;2023-08-01T01:08:02;97537.31;;;16.03;57.03
50518;BME280;37075;44.084;2.962;2023-08-01T01:10:48;97527.47;;;16.02;56.57
50518;BME280;37075;44.084;2.962;2023-08-01T01:13:52;97521.13;;;15.98;55.96
50518;BME280;37075;44.084;2.962;2023-08-01T01:16:38;97506.13;;;15.92;56.58
50518;BME280;37075;44.084;2.962;2023-08-01T01:19:24;97511.16;;;15.86;57.75
50518;BME280;37075;44.084;2.962;2023-08-01T01:22:11;97527.19;;;15.81;58.90
50518;BME280;37075;44.084;2.962;2023-08-01T01:24:58;97535.03;;;15.79;57.38
50518;BME280;37075;44.084;2.962;2023-08-01T01:27:45;97533.03;;;15.76;58.38
50518;BME280;37075;44.084;2.962;2023-08-01T01:30:31;97511.72;;;15.69;59.26
50518;BME280;37075;44.084;2.962;2023-08-01T01:33:18;97504.63;;;15.68;57.95
50518;BME280;37075;44.084;2.962;2023-08-01T01:36:04;97500.69;;;15.65;58.18
50518;BME280;37075;44.084;2.962;2023-08-01T01:38:51;97500.19;;;15.60;59.05
50518;BME280;37075;44.084;2.962;2023-08-01T01:41:37;97514.31;;;15.58;59.25
50518;BME280;37075;44.084;2.962;2023-08-01T01:44:23;97506.78;;;15.55;58.71
50518;BME280;37075;44.084;2.962;2023-08-01T01:47:09;97513.03;;;15.52;59.86
50518;BME280;37075;44.084;2.962;2023-08-01T01:49:55;97505.50;;;15.49;59.77
50518;BME280;37075;44.084;2.962;2023-08-01T01:52:41;97506.63;;;15.45;62.34
50518;BME280;37075;44.084;2.962;2023-08-01T01:55:28;97500.72;;;15.42;60.18
50518;BME280;37075;44.084;2.962;2023-08-01T01:58:14;97505.75;;;15.37;61.54
50518;BME280;37075;44.084;2.962;2023-08-01T02:01:00;97513.91;;;15.33;61.36
50518;BME280;37075;44.084;2.962;2023-08-01T02:03:46;97505.25;;;15.31;60.37
50518;BME280;37075;44.084;2.962;2023-08-01T02:06:32;97492.63;;;15.27;59.74
50518;BME280;37075;44.084;2.962;2023-08-01T02:09:18;97501.59;;;15.24;60.27
50518;BME280;37075;44.084;2.962;2023-08-01T02:12:06;97506.19;;;15.16;62.14
50518;BME280;37075;44.084;2.962;2023-08-01T02:14:54;97514.31;;;15.09;62.54
50518;BME280;37075;44.084;2.962;2023-08-01T02:17:40;97511.94;;;15.07;62.90
50518;BME280;37075;44.084;2.962;2023-08-01T02:20:26;97514.31;;;15.09;61.59
50518;BME280;37075;44.084;2.962;2023-08-01T02:23:13;97517.00;;;15.05;63.56
50518;BME280;37075;44.084;2.962;2023-08-01T02:25:59;97504.47;;;15.08;62.14
50518;BME280;37075;44.084;2.962;2023-08-01T02:28:46;97508.81;;;15.09;62.25
50518;BME280;37075;44.084;2.962;2023-08-01T02:31:32;97506.00;;;15.05;66.41
50518;BME280;37075;44.084;2.962;2023-08-01T02:34:20;97515.47;;;15.08;62.28
50518;BME280;37075;44.084;2.962;2023-08-01T02:37:06;97517.88;;;15.09;61.90
50518;BME280;37075;44.084;2.962;2023-08-01T02:39:51;97519.09;;;15.12;62.62
50518;BME280;37075;44.084;2.962;2023-08-01T02:42:37;97529.44;;;15.22;63.02
50518;BME280;37075;44.084;2.962;2023-08-01T02:45:25;97534.63;;;15.27;69.24
50518;BME280;37075;44.084;2.962;2023-08-01T02:48:10;97530.16;;;15.42;64.74
50518;BME280;37075;44.084;2.962;2023-08-01T02:50:56;97528.25;;;15.46;64.75
50518;BME280;37075;44.084;2.962;2023-08-01T02:53:42;97531.88;;;15.54;64.23
50518;BME280;37075;44.084;2.962;2023-08-01T02:56:28;97527.00;;;15.66;63.88
50518;BME280;37075;44.084;2.962;2023-08-01T02:59:14;97532.31;;;15.82;65.79
50518;BME280;37075;44.084;2.962;2023-08-01T03:02:01;97515.63;;;15.98;63.67
50518;BME280;37075;44.084;2.962;2023-08-01T03:04:47;97507.50;;;16.09;63.91
50518;BME280;37075;44.084;2.962;2023-08-01T03:07:33;97491.94;;;16.20;63.72
50518;BME280;37075;44.084;2.962;2023-08-01T03:10:19;97491.25;;;16.30;62.48
50518;BME280;37075;44.084;2.962;2023-08-01T03:13:05;97494.00;;;16.30;65.25
50518;BME280;37075;44.084;2.962;2023-08-01T03:15:50;97489.28;;;16.30;64.17
50518;BME280;37075;44.084;2.962;2023-08-01T03:18:37;97485.38;;;16.31;63.94
50518;BME280;37075;44.084;2.962;2023-08-01T03:21:23;97476.69;;;16.29;62.52
50518;BME280;37075;44.084;2.962;2023-08-01T03:24:10;97481.75;;;16.24;61.90
50518;BME280;37075;44.084;2.962;2023-08-01T03:26:56;97479.31;;;16.15;62.79
50518;BME280;37075;44.084;2.962;2023-08-01T03:29:42;97483.09;;;16.03;64.50
50518;BME280;37075;44.084;2.962;2023-08-01T03:32:28;97479.91;;;16.01;63.37
50518;BME280;37075;44.084;2.962;2023-08-01T03:35:15;97466.13;;;15.98;63.26
50518;BME280;37075;44.084;2.962;2023-08-01T03:38:02;97468.06;;;15.94;62.51
50518;BME280;37075;44.084;2.962;2023-08-01T03:40:49;97460.13;;;15.89;63.13
50518;BME280;37075;44.084;2.962;2023-08-01T03:43:34;97474.16;;;15.80;65.64
50518;BME280;37075;44.084;2.962;2023-08-01T03:46:21;97485.84;;;15.73;64.34
50518;BME280;37075;44.084;2.962;2023-08-01T03:49:25;97481.97;;;15.78;63.43
50518;BME280;37075;44.084;2.962;2023-08-01T03:52:13;97480.03;;;15.79;63.12
50518;BME280;37075;44.084;2.962;2023-08-01T03:54:59;97471.78;;;15.79;62.90
50518;BME280;37075;44.084;2.962;2023-08-01T03:57:45;97479.22;;;15.78;63.24
50518;BME280;37075;44.084;2.962;2023-08-01T04:00:31;97495.31;;;15.76;65.49
50518;BME280;37075;44.084;2.962;2023-08-01T04:03:18;97477.22;;;15.75;63.52
50518;BME280;37075;44.084;2.962;2023-08-01T04:06:03;97476.06;;;15.76;63.52
50518;BME280;37075;44.084;2.962;2023-08-01T04:08:51;97475.66;;;15.74;62.97
50518;BME280;37075;44.084;2.962;2023-08-01T04:11:36;97483.09;;;15.73;62.92
50518;BME280;37075;44.084;2.962;2023-08-01T04:14:22;97481.91;;;15.71;63.28
50518;BME280;37075;44.084;2.962;2023-08-01T04:17:08;97502.31;;;15.70;62.95
50518;BME280;37075;44.084;2.962;2023-08-01T04:19:54;97507.81;;;15.70;66.38
50518;BME280;37075;44.084;2.962;2023-08-01T04:22:40;97512.22;;;15.78;64.73
50518;BME280;37075;44.084;2.962;2023-08-01T04:25:27;97523.31;;;15.85;65.21
50518;BME280;37075;44.084;2.962;2023-08-01T04:28:13;97529.72;;;15.93;64.97
50518;BME280;37075;44.084;2.962;2023-08-01T04:30:59;97526.25;;;15.99;64.12
50518;BME280;37075;44.084;2.962;2023-08-01T04:33:45;97520.81;;;16.03;66.25
50518;BME280;37075;44.084;2.962;2023-08-01T04:36:31;97524.00;;;16.09;66.98
50518;BME280;37075;44.084;2.962;2023-08-01T04:39:35;97526.56;;;16.24;66.21
50518;BME280;37075;44.084;2.962;2023-08-01T04:42:23;97539.75;;;16.42;64.98
50518;BME280;37075;44.084;2.962;2023-08-01T04:45:09;97536.69;;;16.50;65.78
50518;BME280;37075;44.084;2.962;2023-08-01T04:47:55;97539.59;;;16.64;65.13
50518;BME280;37075;44.084;2.962;2023-08-01T04:50:40;97540.53;;;16.76;64.83
50518;BME280;37075;44.084;2.962;2023-08-01T04:53:26;97546.91;;;16.83;64.84
50518;BME280;37075;44.084;2.962;2023-08-01T04:56:12;97547.03;;;16.94;64.43
50518;BME280;37075;44.084;2.962;2023-08-01T04:58:59;97549.00;;;16.97;64.77
50518;BME280;37075;44.084;2.962;2023-08-01T05:01:46;97539.22;;;17.03;64.70
50518;BME280;37075;44.084;2.962;2023-08-01T05:04:31;97542.03;;;17.10;64.41
50518;BME280;37075;44.084;2.962;2023-08-01T05:07:36;97533.41;;;17.15;64.47
50518;BME280;37075;44.084;2.962;2023-08-01T05:10:21;97526.81;;;17.23;63.87
50518;BME280;37075;44.084;2.962;2023-08-01T05:13:07;97531.97;;;17.32;63.57
50518;BME280;37075;44.084;2.962;2023-08-01T05:15:55;97534.00;;;17.39;63.23
50518;BME280;37075;44.084;2.962;2023-08-01T05:18:41;97543.06;;;17.43;62.95
50518;BME280;37075;44.084;2.962;2023-08-01T05:21:27;97543.94;;;17.50;62.62
50518;BME280;37075;44.084;2.962;2023-08-01T05:24:13;97543.56;;;17.55;62.58
50518;BME280;37075;44.084;2.962;2023-08-01T05:26:58;97543.59;;;17.59;63.18
50518;BME280;37075;44.084;2.962;2023-08-01T05:29:44;97543.72;;;17.73;62.59
50518;BME280;37075;44.084;2.962;2023-08-01T05:32:32;97545.72;;;17.76;63.04
50518;BME280;37075;44.084;2.962;2023-08-01T05:35:18;97545.78;;;17.91;62.79
50518;BME280;37075;44.084;2.962;2023-08-01T05:38:04;97556.47;;;17.96;62.75
50518;BME280;37075;44.084;2.962;2023-08-01T05:40:50;97552.19;;;18.09;62.49
50518;BME280;37075;44.084;2.962;2023-08-01T05:43:35;97568.00;;;18.19;62.31
50518;BME280;37075;44.084;2.962;2023-08-01T05:46:21;97558.97;;;18.22;62.21
50518;BME280;37075;44.084;2.962;2023-08-01T05:49:08;97574.00;;;18.32;62.12
50518;BME280;37075;44.084;2.962;2023-08-01T05:52:13;97567.31;;;18.36;62.21
50518;BME280;37075;44.084;2.962;2023-08-01T05:54:59;97568.50;;;18.39;62.29
50518;BME280;37075;44.084;2.962;2023-08-01T05:57:44;97563.00;;;18.46;62.21
50518;BME280;37075;44.084;2.962;2023-08-01T06:00:30;97563.84;;;18.57;61.99
50518;BME280;37075;44.084;2.962;2023-08-01T06:03:16;97562.25;;;18.60;61.76
50518;BME280;37075;44.084;2.962;2023-08-01T06:06:03;97573.31;;;18.56;61.92
50518;BME280;37075;44.084;2.962;2023-08-01T06:09:08;97562.69;;;18.69;61.87
50518;BME280;37075;44.084;2.962;2023-08-01T06:11:54;97560.00;;;18.83;61.59
50518;BME280;37075;44.084;2.962;2023-08-01T06:14:40;97563.50;;;18.73;61.83
50518;BME280;37075;44.084;2.962;2023-08-01T06:17:25;97568.28;;;18.79;61.60
50518;BME280;37075;44.084;2.962;2023-08-01T06:20:30;97565.53;;;18.97;61.00
50518;BME280;37075;44.084;2.962;2023-08-01T06:23:17;97563.19;;;19.14;60.76
50518;BME280;37075;44.084;2.962;2023-08-01T06:26:03;97567.13;;;19.23;60.16
50518;BME280;37075;44.084;2.962;2023-08-01T06:28:49;97555.28;;;19.23;60.40
50518;BME280;37075;44.084;2.962;2023-08-01T06:31:37;97547.78;;;19.20;60.59
50518;BME280;37075;44.084;2.962;2023-08-01T06:34:23;97553.72;;;19.25;60.91
50518;BME280;37075;44.084;2.962;2023-08-01T06:37:10;97550.56;;;19.27;60.33
50518;BME280;37075;44.084;2.962;2023-08-01T06:39:57;97554.13;;;19.38;60.22
50518;BME280;37075;44.084;2.962;2023-08-01T06:42:43;97543.44;;;19.44;60.14
50518;BME280;37075;44.084;2.962;2023-08-01T06:45:29;97537.50;;;19.41;60.82
50518;BME280;37075;44.084;2.962;2023-08-01T06:48:15;97545.03;;;19.45;60.57
50518;BME280;37075;44.084;2.962;2023-08-01T06:51:00;97548.59;;;19.34;61.49
50518;BME280;37075;44.084;2.962;2023-08-01T06:54:06;97543.03;;;19.49;61.17
50518;BME280;37075;44.084;2.962;2023-08-01T06:56:54;97549.00;;;19.61;61.17
50518;BME280;37075;44.084;2.962;2023-08-01T06:59:40;97548.56;;;19.81;60.43
50518;BME280;37075;44.084;2.962;2023-08-01T07:02:25;97538.25;;;19.95;59.98
50518;BME280;37075;44.084;2.962;2023-08-01T07:05:11;97532.69;;;20.10;59.32
50518;BME280;37075;44.084;2.962;2023-08-01T07:07:57;97550.44;;;20.16;59.41
50518;BME280;37075;44.084;2.962;2023-08-01T07:10:43;97545.31;;;20.18;59.14
50518;BME280;37075;44.084;2.962;2023-08-01T07:13:32;97546.53;;;20.10;59.54
50518;BME280;37075;44.084;2.962;2023-08-01T07:16:18;97558.38;;;20.10;59.56
50518;BME280;37075;44.084;2.962;2023-08-01T07:19:04;97563.16;;;20.06;59.52
50518;BME280;37075;44.084;2.962;2023-08-01T07:22:09;97569.53;;;19.75;60.44
50518;BME280;37075;44.084;2.962;2023-08-01T07:24:54;97567.19;;;19.62;60.93
50518;BME280;37075;44.084;2.962;2023-08-01T07:27:59;97567.94;;;19.77;60.80
50518;BME280;37075;44.084;2.962;2023-08-01T07:30:46;97545.81;;;19.74;60.90
50518;BME280;37075;44.084;2.962;2023-08-01T07:33:33;97526.38;;;19.95;60.51
50518;BME280;37075;44.084;2.962;2023-08-01T07:36:20;97524.38;;;20.10;60.25
50518;BME280;37075;44.084;2.962;2023-08-01T07:39:24;97525.88;;;20.28;59.87
50518;BME280;37075;44.084;2.962;2023-08-01T07:42:10;97514.34;;;20.48;59.07
50518;BME280;37075;44.084;2.962;2023-08-01T07:44:56;97521.75;;;20.69;58.70
50518;BME280;37075;44.084;2.962;2023-08-01T07:47:43;97516.13;;;20.79;58.63
50518;BME280;37075;44.084;2.962;2023-08-01T07:50:29;97516.88;;;20.87;58.10
50518;BME280;37075;44.084;2.962;2023-08-01T07:53:15;97501.78;;;20.95;57.90
50518;BME280;37075;44.084;2.962;2023-08-01T07:56:01;97511.75;;;20.85;58.02
50518;BME280;37075;44.084;2.962;2023-08-01T07:58:47;97513.34;;;20.83;58.37
50518;BME280;37075;44.084;2.962;2023-08-01T08:01:33;97508.97;;;20.85;58.17
50518;BME280;37075;44.084;2.962;2023-08-01T08:07:23;97509.53;;;20.59;59.04
50518;BME280;37075;44.084;2.962;2023-08-01T08:10:09;97525.38;;;20.58;59.14
50518;BME280;37075;44.084;2.962;2023-08-01T08:12:55;97520.56;;;20.66;58.86
50518;BME280;37075;44.084;2.962;2023-08-01T08:15:41;97512.72;;;20.54;59.57
50518;BME280;37075;44.084;2.962;2023-08-01T08:18:27;97522.16;;;20.67;59.25
50518;BME280;37075;44.084;2.962;2023-08-01T08:21:12;97518.19;;;20.68;59.19
50518;BME280;37075;44.084;2.962;2023-08-01T08:24:00;97514.94;;;20.77;59.05
50518;BME280;37075;44.084;2.962;2023-08-01T08:30:16;97499.44;;;20.90;60.41
50518;BME280;37075;44.084;2.962;2023-08-01T08:33:01;97509.66;;;21.00;59.90
50518;BME280;37075;44.084;2.962;2023-08-01T08:35:49;97508.09;;;20.96;60.44
50518;BME280;37075;44.084;2.962;2023-08-01T08:38:35;97512.44;;;20.97;60.69
50518;BME280;37075;44.084;2.962;2023-08-01T08:41:23;97515.38;;;20.72;60.94
50518;BME280;37075;44.084;2.962;2023-08-01T08:44:11;97514.88;;;20.91;61.04
50518;BME280;37075;44.084;2.962;2023-08-01T08:47:02;97504.16;;;20.93;61.20
50518;BME280;37075;44.084;2.962;2023-08-01T08:49:48;97509.31;;;20.94;60.82
50518;BME280;37075;44.084;2.962;2023-08-01T08:52:34;97507.22;;;21.09;61.06
50518;BME280;37075;44.084;2.962;2023-08-01T08:55:39;97511.88;;;21.19;61.05
50518;BME280;37075;44.084;2.962;2023-08-01T08:58:27;97519.41;;;21.19;61.13
50518;BME280;37075;44.084;2.962;2023-08-01T09:01:14;97531.88;;;20.97;62.11
50518;BME280;37075;44.084;2.962;2023-08-01T09:04:01;97530.63;;;21.01;62.48
50518;BME280;37075;44.084;2.962;2023-08-01T09:07:06;97525.44;;;21.10;62.86
50518;BME280;37075;44.084;2.962;2023-08-01T09:09:53;97531.03;;;21.00;63.49
50518;BME280;37075;44.084;2.962;2023-08-01T09:12:39;97527.47;;;21.03;62.87
50518;BME280;37075;44.084;2.962;2023-08-01T09:15:26;97521.09;;;21.06;63.03
50518;BME280;37075;44.084;2.962;2023-08-01T09:18:13;97524.75;;;20.96;63.64
50518;BME280;37075;44.084;2.962;2023-08-01T09:20:59;97522.69;;;21.03;64.58
50518;BME280;37075;44.084;2.962;2023-08-01T09:23:47;97527.47;;;21.03;64.42
50518;BME280;37075;44.084;2.962;2023-08-01T09:26:33;97518.31;;;21.09;64.23
50518;BME280;37075;44.084;2.962;2023-08-01T09:29:19;97521.47;;;21.08;63.56
50518;BME280;37075;44.084;2.962;2023-08-01T09:32:13;97520.34;;;21.53;63.37
50518;BME280;37075;44.084;2.962;2023-08-01T09:34:59;97512.66;;;21.68;62.73
50518;BME280;37075;44.084;2.962;2023-08-01T09:37:45;97513.66;;;21.89;62.02
50518;BME280;37075;44.084;2.962;2023-08-01T09:40:35;97507.06;;;22.09;61.69
50518;BME280;37075;44.084;2.962;2023-08-01T09:43:21;97511.88;;;22.05;62.47
50518;BME280;37075;44.084;2.962;2023-08-01T09:46:07;97517.34;;;21.75;63.48
50518;BME280;37075;44.084;2.962;2023-08-01T09:48:54;97506.75;;;22.00;61.72
50518;BME280;37075;44.084;2.962;2023-08-01T09:51:47;97507.28;;;22.26;61.79
50518;BME280;37075;44.084;2.962;2023-08-01T09:54:33;97503.03;;;22.18;61.17
50518;BME280;37075;44.084;2.962;2023-08-01T09:57:19;97510.38;;;21.97;61.71
50518;BME280;37075;44.084;2.962;2023-08-01T10:00:08;97503.50;;;22.12;61.47
50518;BME280;37075;44.084;2.962;2023-08-01T10:02:57;97507.75;;;22.51;60.62
50518;BME280;37075;44.084;2.962;2023-08-01T10:05:47;97508.44;;;22.28;61.03
50518;BME280;37075;44.084;2.962;2023-08-01T10:08:33;97506.53;;;22.22;61.19
50518;BME280;37075;44.084;2.962;2023-08-01T10:11:20;97509.91;;;22.36;62.07
50518;BME280;37075;44.084;2.962;2023-08-01T10:14:06;97507.75;;;22.21;61.55
50518;BME280;37075;44.084;2.962;2023-08-01T10:16:52;97510.00;;;22.29;61.68
50518;BME280;37075;44.084;2.962;2023-08-01T10:19:39;97518.59;;;22.42;62.35
50518;BME280;37075;44.084;2.962;2023-08-01T10:22:29;97508.72;;;22.37;62.34
50518;BME280;37075;44.084;2.962;2023-08-01T10:25:14;97512.38;;;22.31;62.07
50518;BME280;37075;44.084;2.962;2023-08-01T10:28:02;97512.31;;;22.04;62.75
50518;BME280;37075;44.084;2.962;2023-08-01T10:30:48;97513.78;;;22.46;63.24
50518;BME280;37075;44.084;2.962;2023-08-01T10:33:34;97523.69;;;22.47;62.91
50518;BME280;37075;44.084;2.962;2023-08-01T10:36:21;97516.25;;;22.40;61.95
50518;BME280;37075;44.084;2.962;2023-08-01T10:39:08;97508.50;;;22.55;62.12
50518;BME280;37075;44.084;2.962;2023-08-01T10:41:58;97507.69;;;22.24;63.32
50518;BME280;37075;44.084;2.962;2023-08-01T10:44:44;97512.44;;;22.27;63.03
50518;BME280;37075;44.084;2.962;2023-08-01T10:47:30;97494.38;;;22.42;62.13
50518;BME280;37075;44.084;2.962;2023-08-01T10:50:17;97505.56;;;22.35;63.25
50518;BME280;37075;44.084;2.962;2023-08-01T10:53:04;97497.66;;;22.64;62.25
50518;BME280;37075;44.084;2.962;2023-08-01T10:55:51;97490.72;;;22.49;62.78
50518;BME280;37075;44.084;2.962;2023-08-01T10:58:38;97498.22;;;22.22;62.58
50518;BME280;37075;44.084;2.962;2023-08-01T11:01:24;97479.13;;;22.24;62.31
50518;BME280;37075;44.084;2.962;2023-08-01T11:04:13;97488.09;;;22.35;62.99
50518;BME280;37075;44.084;2.962;2023-08-01T11:06:59;97485.31;;;22.38;62.41
50518;BME280;37075;44.084;2.962;2023-08-01T11:09:45;97485.19;;;22.45;61.68
50518;BME280;37075;44.084;2.962;2023-08-01T11:12:34;97487.50;;;22.51;61.82
50518;BME280;37075;44.084;2.962;2023-08-01T11:15:20;97479.59;;;22.76;61.35
50518;BME280;37075;44.084;2.962;2023-08-01T11:18:09;97486.31;;;22.78;60.48
50518;BME280;37075;44.084;2.962;2023-08-01T11:20:55;97477.91;;;23.09;59.99
50518;BME280;37075;44.084;2.962;2023-08-01T11:23:41;97479.00;;;22.92;60.50
50518;BME280;37075;44.084;2.962;2023-08-01T11:26:27;97484.94;;;22.94;60.16
50518;BME280;37075;44.084;2.962;2023-08-01T11:29:15;97472.69;;;22.88;61.01
50518;BME280;37075;44.084;2.962;2023-08-01T11:32:01;97481.91;;;22.54;61.42
50518;BME280;37075;44.084;2.962;2023-08-01T11:34:48;97480.06;;;22.44;61.92
50518;BME280;37075;44.084;2.962;2023-08-01T11:37:34;97481.53;;;22.52;62.18
50518;BME280;37075;44.084;2.962;2023-08-01T11:40:20;97474.59;;;22.64;62.24
50518;BME280;37075;44.084;2.962;2023-08-01T11:43:06;97478.66;;;22.86;62.14
50518;BME280;37075;44.084;2.962;2023-08-01T11:45:54;97473.44;;;22.92;61.39
50518;BME280;37075;44.084;2.962;2023-08-01T11:48:44;97481.25;;;23.24;61.42
50518;BME280;37075;44.084;2.962;2023-08-01T11:51:48;97473.56;;;23.08;61.39
50518;BME280;37075;44.084;2.962;2023-08-01T11:54:43;97481.69;;;23.22;60.61
50518;BME280;37075;44.084;2.962;2023-08-01T11:57:30;97473.19;;;23.53;60.09
50518;BME280;37075;44.084;2.962;2023-08-01T12:00:20;97481.19;;;23.51;58.81
50518;BME280;37075;44.084;2.962;2023-08-01T12:03:09;97469.13;;;23.81;60.21
50518;BME280;37075;44.084;2.962;2023-08-01T12:06:02;97464.63;;;24.07;57.89
50518;BME280;37075;44.084;2.962;2023-08-01T12:08:50;97466.72;;;24.03;57.50
50518;BME280;37075;44.084;2.962;2023-08-01T12:11:36;97463.06;;;24.06;57.14
50518;BME280;37075;44.084;2.962;2023-08-01T12:14:21;97461.19;;;24.19;57.50
50518;BME280;37075;44.084;2.962;2023-08-01T12:17:07;97450.19;;;24.51;57.22
50518;BME280;37075;44.084;2.962;2023-08-01T12:19:55;97459.97;;;24.20;56.99
50518;BME280;37075;44.084;2.962;2023-08-01T12:22:41;97451.34;;;24.14;57.29
50518;BME280;37075;44.084;2.962;2023-08-01T12:25:27;97461.00;;;24.10;56.87
50518;BME280;37075;44.084;2.962;2023-08-01T12:28:13;97468.19;;;23.87;57.38
50518;BME280;37075;44.084;2.962;2023-08-01T12:30:59;97456.13;;;23.94;56.80
50518;BME280;37075;44.084;2.962;2023-08-01T12:33:45;97455.47;;;23.86;57.27
50518;BME280;37075;44.084;2.962;2023-08-01T12:36:32;97456.81;;;24.18;56.72
50518;BME280;37075;44.084;2.962;2023-08-01T12:39:18;97451.75;;;23.93;57.53
50518;BME280;37075;44.084;2.962;2023-08-01T12:42:05;97455.91;;;24.05;56.95
50518;BME280;37075;44.084;2.962;2023-08-01T12:44:51;97454.00;;;24.21;56.76
50518;BME280;37075;44.084;2.962;2023-08-01T12:47:37;97456.19;;;24.10;56.71
50518;BME280;37075;44.084;2.962;2023-08-01T12:50:23;97447.91;;;24.63;55.39
50518;BME280;37075;44.084;2.962;2023-08-01T12:53:10;97453.88;;;24.81;54.81
50518;BME280;37075;44.084;2.962;2023-08-01T12:55:56;97460.69;;;24.44;54.68
50518;BME280;37075;44.084;2.962;2023-08-01T12:58:42;97455.47;;;24.46;54.53
50518;BME280;37075;44.084;2.962;2023-08-01T13:01:28;97445.25;;;24.19;55.51
50518;BME280;37075;44.084;2.962;2023-08-01T13:04:14;97441.50;;;24.29;55.21
50518;BME280;37075;44.084;2.962;2023-08-01T13:07:00;97444.38;;;24.42;54.34
50518;BME280;37075;44.084;2.962;2023-08-01T13:09:48;97435.91;;;24.29;54.25
50518;BME280;37075;44.084;2.962;2023-08-01T13:12:33;97429.38;;;24.72;53.71
50518;BME280;37075;44.084;2.962;2023-08-01T13:15:38;97424.78;;;25.31;53.37
50518;BME280;37075;44.084;2.962;2023-08-01T13:18:24;97424.25;;;25.94;51.05
50518;BME280;37075;44.084;2.962;2023-08-01T13:21:10;97419.22;;;26.30;49.01
50518;BME280;37075;44.084;2.962;2023-08-01T13:23:56;97411.28;;;26.54;49.96
50518;BME280;37075;44.084;2.962;2023-08-01T13:27:02;97412.84;;;26.93;48.47
50518;BME280;37075;44.084;2.962;2023-08-01T13:29:48;97403.84;;;27.24;47.32
50518;BME280;37075;44.084;2.962;2023-08-01T13:32:37;97402.06;;;27.52;47.64
50518;BME280;37075;44.084;2.962;2023-08-01T13:35:23;97399.91;;;28.12;45.76
50518;BME280;37075;44.084;2.962;2023-08-01T13:38:09;97394.00;;;28.81;44.03
50518;BME280;37075;44.084;2.962;2023-08-01T13:40:58;97398.66;;;29.34;41.46
50518;BME280;37075;44.084;2.962;2023-08-01T13:43:45;97386.00;;;30.12;40.11
50518;BME280;37075;44.084;2.962;2023-08-01T13:46:31;97391.63;;;30.02;39.32
50518;BME280;37075;44.084;2.962;2023-08-01T13:49:17;97391.81;;;30.08;39.10
50518;BME280;37075;44.084;2.962;2023-08-01T13:52:03;97380.38;;;30.21;38.54
50518;BME280;37075;44.084;2.962;2023-08-01T13:54:49;97371.88;;;31.05;37.85
50518;BME280;37075;44.084;2.962;2023-08-01T13:57:35;97369.84;;;31.68;35.98
50518;BME280;37075;44.084;2.962;2023-08-01T14:00:23;97361.34;;;32.07;34.84
50518;BME280;37075;44.084;2.962;2023-08-01T14:03:09;97358.25;;;32.05;34.28
50518;BME280;37075;44.084;2.962;2023-08-01T14:05:55;97354.34;;;31.87;34.23
50518;BME280;37075;44.084;2.962;2023-08-01T14:08:41;97362.66;;;31.67;34.76
50518;BME280;37075;44.084;2.962;2023-08-01T14:11:27;97355.03;;;32.12;34.32
50518;BME280;37075;44.084;2.962;2023-08-01T14:14:13;97356.78;;;32.74;32.84
50518;BME280;37075;44.084;2.962;2023-08-01T14:17:01;97356.41;;;32.31;32.16
50518;BME280;37075;44.084;2.962;2023-08-01T14:19:47;97348.41;;;32.00;32.84
50518;BME280;37075;44.084;2.962;2023-08-01T14:22:33;97367.56;;;31.81;32.66
50518;BME280;37075;44.084;2.962;2023-08-01T14:25:19;97356.94;;;31.14;34.02
50518;BME280;37075;44.084;2.962;2023-08-01T14:28:06;97345.41;;;29.94;36.01
50518;BME280;37075;44.084;2.962;2023-08-01T14:30:51;97352.13;;;29.33;37.59
50518;BME280;37075;44.084;2.962;2023-08-01T14:33:39;97369.59;;;28.60;39.55
50518;BME280;37075;44.084;2.962;2023-08-01T14:36:25;97356.19;;;27.93;40.98
50518;BME280;37075;44.084;2.962;2023-08-01T14:39:11;97354.59;;;27.48;42.00
50518;BME280;37075;44.084;2.962;2023-08-01T14:41:56;97363.75;;;27.27;42.88
50518;BME280;37075;44.084;2.962;2023-08-01T14:44:42;97356.38;;;27.77;42.12
50518;BME280;37075;44.084;2.962;2023-08-01T14:47:28;97337.94;;;28.60;40.90
50518;BME280;37075;44.084;2.962;2023-08-01T14:50:34;97328.50;;;30.13;38.71
50518;BME280;37075;44.084;2.962;2023-08-01T14:53:21;97333.03;;;30.85;36.48